sensor_id;sensor_type;location;lat;lon;timestamp;P1;durP1;ratioP1;P2;durP2;ratioP2
14516;SDS011;7344;50.864;4.362;2023-04-24T00:01:42;19.60;;;13.83;;
14516;SDS011;7344;50.864;4.362;2023-04-24T00:04:08;21.70;;;14.40;;
14516;SDS011;7344;50.864;4.362;2023-04-24T00:06:36;21.13;;;13.53;;
14516;SDS011;7344;50.864;4.362;2023-04-24T00:09:02;22.37;;;14.17;;
14516;SDS011;7344;50.864;4.362;2023-04-24T00:11:28;21.20;;;13.60;;
14516;SDS011;7344;50.864;4.362;2023-04-24T00:13:55;25.13;;;14.47;;
14516;SDS011;7344;50.864;4.362;2023-04-24T00:16:21;19.83;;;13.23;;
14516;SDS011;7344;50.864;4.362;2023-04-24T00:18:47;23.37;;;13.90;;
14516;SDS011;7344;50.864;4.362;2023-04-24T00:21:13;19.23;;;13.70;;
14516;SDS011;7344;50.864;4.362;2023-04-24T00:23:41;21.33;;;14.57;;
14516;SDS011;7344;50.864;4.362;2023-04-24T00:26:06;23.47;;;14.10;;
14516;SDS011;7344;50.864;4.362;2023-04-24T00:28:32;26.93;;;14.80;;
14516;SDS011;7344;50.864;4.362;2023-04-24T00:30:57;20.93;;;13.93;;
14516;SDS011;7344;50.864;4.362;2023-04-24T00:33:23;20.63;;;14.73;;
14516;SDS011;7344;50.864;4.362;2023-04-24T00:35:49;23.47;;;14.20;;
14516;SDS011;7344;50.864;4.362;2023-04-24T00:38:14;26.67;;;14.67;;
14516;SDS011;7344;50.864;4.362;2023-04-24T00:40:40;21.90;;;14.87;;
14516;SDS011;7344;50.864;4.362;2023-04-24T00:43:06;19.70;;;14.80;;
14516;SDS011;7344;50.864;4.362;2023-04-24T00:45:31;24.90;;;15.40;;
14516;SDS011;7344;50.864;4.362;2023-04-24T00:47:57;22.97;;;14.10;;
14516;SDS011;7344;50.864;4.362;2023-04-24T00:50:24;26.63;;;14.87;;
14516;SDS011;7344;50.864;4.362;2023-04-24T00:52:50;23.60;;;15.13;;
14516;SDS011;7344;50.864;4.362;2023-04-24T00:55:16;25.03;;;15.40;;
14516;SDS011;7344;50.864;4.362;2023-04-24T00:57:42;21.83;;;15.27;;
14516;SDS011;7344;50.864;4.362;2023-04-24T01:00:08;18.37;;;14.20;;
14516;SDS011;7344;50.864;4.362;2023-04-24T01:02:38;22.00;;;14.60;;
14516;SDS011;7344;50.864;4.362;2023-04-24T01:05:08;24.77;;;14.70;;
14516;SDS011;7344;50.864;4.362;2023-04-24T01:07:34;25.00;;;14.93;;
14516;SDS011;7344;50.864;4.362;2023-04-24T01:10:01;24.63;;;15.33;;
14516;SDS011;7344;50.864;4.362;2023-04-24T01:12:27;22.23;;;15.20;;
14516;SDS011;7344;50.864;4.362;2023-04-24T01:14:53;26.67;;;15.97;;
14516;SDS011;7344;50.864;4.362;2023-04-24T01:17:19;22.47;;;15.83;;
14516;SDS011;7344;50.864;4.362;2023-04-24T01:19:45;25.47;;;15.73;;
14516;SDS011;7344;50.864;4.362;2023-04-24T01:22:13;21.67;;;15.37;;
14516;SDS011;7344;50.864;4.362;2023-04-24T01:24:39;19.73;;;15.10;;
14516;SDS011;7344;50.864;4.362;2023-04-24T01:27:05;22.47;;;15.90;;
14516;SDS011;7344;50.864;4.362;2023-04-24T01:29:32;19.07;;;13.93;;
14516;SDS011;7344;50.864;4.362;2023-04-24T01:31:58;19.53;;;14.90;;
14516;SDS011;7344;50.864;4.362;2023-04-24T01:34:23;20.43;;;14.97;;
14516;SDS011;7344;50.864;4.362;2023-04-24T01:36:49;21.50;;;14.10;;
14516;SDS011;7344;50.864;4.362;2023-04-24T01:39:15;20.30;;;14.40;;
14516;SDS011;7344;50.864;4.362;2023-04-24T01:41:41;22.30;;;12.93;;
14516;SDS011;7344;50.864;4.362;2023-04-24T01:44:07;16.63;;;13.03;;
14516;SDS011;7344;50.864;4.362;2023-04-24T01:46:33;20.07;;;13.17;;
14516;SDS011;7344;50.864;4.362;2023-04-24T01:49:00;18.27;;;13.23;;
14516;SDS011;7344;50.864;4.362;2023-04-24T01:51:26;18.73;;;13.10;;
14516;SDS011;7344;50.864;4.362;2023-04-24T01:53:52;14.83;;;11.60;;
14516;SDS011;7344;50.864;4.362;2023-04-24T01:56:19;18.37;;;12.73;;
14516;SDS011;7344;50.864;4.362;2023-04-24T01:58:46;17.03;;;11.90;;
14516;SDS011;7344;50.864;4.362;2023-04-24T02:01:19;19.53;;;12.27;;
14516;SDS011;7344;50.864;4.362;2023-04-24T02:03:45;20.00;;;13.27;;
14516;SDS011;7344;50.864;4.362;2023-04-24T02:06:10;17.97;;;13.10;;
14516;SDS011;7344;50.864;4.362;2023-04-24T02:08:36;20.03;;;12.40;;
14516;SDS011;7344;50.864;4.362;2023-04-24T02:11:02;19.93;;;12.70;;
14516;SDS011;7344;50.864;4.362;2023-04-24T02:13:27;15.97;;;12.80;;
14516;SDS011;7344;50.864;4.362;2023-04-24T02:15:53;19.97;;;13.47;;
14516;SDS011;7344;50.864;4.362;2023-04-24T02:18:19;19.53;;;13.67;;
14516;SDS011;7344;50.864;4.362;2023-04-24T02:20:45;19.43;;;14.20;;
14516;SDS011;7344;50.864;4.362;2023-04-24T02:23:11;21.03;;;13.33;;
14516;SDS011;7344;50.864;4.362;2023-04-24T02:25:38;20.73;;;13.47;;
14516;SDS011;7344;50.864;4.362;2023-04-24T02:28:03;17.07;;;13.30;;
14516;SDS011;7344;50.864;4.362;2023-04-24T02:30:29;17.70;;;12.50;;
14516;SDS011;7344;50.864;4.362;2023-04-24T02:32:55;18.20;;;13.03;;
14516;SDS011;7344;50.864;4.362;2023-04-24T02:35:21;19.23;;;12.83;;
14516;SDS011;7344;50.864;4.362;2023-04-24T02:37:47;20.27;;;13.57;;
14516;SDS011;7344;50.864;4.362;2023-04-24T02:40:12;17.03;;;13.77;;
14516;SDS011;7344;50.864;4.362;2023-04-24T02:42:38;19.97;;;14.33;;
14516;SDS011;7344;50.864;4.362;2023-04-24T02:45:04;18.30;;;14.47;;
14516;SDS011;7344;50.864;4.362;2023-04-24T02:47:30;19.10;;;13.60;;
14516;SDS011;7344;50.864;4.362;2023-04-24T02:49:55;21.53;;;14.27;;
14516;SDS011;7344;50.864;4.362;2023-04-24T02:52:21;17.43;;;13.30;;
14516;SDS011;7344;50.864;4.362;2023-04-24T02:54:47;18.23;;;12.80;;
14516;SDS011;7344;50.864;4.362;2023-04-24T02:57:12;17.80;;;13.40;;
14516;SDS011;7344;50.864;4.362;2023-04-24T02:59:38;17.80;;;13.63;;
14516;SDS011;7344;50.864;4.362;2023-04-24T03:02:04;17.83;;;13.67;;
14516;SDS011;7344;50.864;4.362;2023-04-24T03:04:30;25.23;;;14.07;;
14516;SDS011;7344;50.864;4.362;2023-04-24T03:06:57;19.70;;;13.50;;
14516;SDS011;7344;50.864;4.362;2023-04-24T03:09:22;20.70;;;13.60;;
14516;SDS011;7344;50.864;4.362;2023-04-24T03:11:48;21.33;;;13.97;;
14516;SDS011;7344;50.864;4.362;2023-04-24T03:14:15;17.50;;;13.13;;
14516;SDS011;7344;50.864;4.362;2023-04-24T03:16:41;18.47;;;12.47;;
14516;SDS011;7344;50.864;4.362;2023-04-24T03:19:06;15.97;;;12.53;;
14516;SDS011;7344;50.864;4.362;2023-04-24T03:21:32;16.33;;;12.30;;
14516;SDS011;7344;50.864;4.362;2023-04-24T03:23:58;13.37;;;11.80;;
14516;SDS011;7344;50.864;4.362;2023-04-24T03:26:24;14.33;;;11.23;;
14516;SDS011;7344;50.864;4.362;2023-04-24T03:28:49;18.50;;;12.33;;
14516;SDS011;7344;50.864;4.362;2023-04-24T03:31:15;15.70;;;12.23;;
14516;SDS011;7344;50.864;4.362;2023-04-24T03:33:41;15.33;;;11.37;;
14516;SDS011;7344;50.864;4.362;2023-04-24T03:36:07;13.93;;;11.70;;
14516;SDS011;7344;50.864;4.362;2023-04-24T03:38:32;13.17;;;11.20;;
14516;SDS011;7344;50.864;4.362;2023-04-24T03:40:58;12.43;;;11.13;;
14516;SDS011;7344;50.864;4.362;2023-04-24T03:43:24;16.53;;;11.63;;
14516;SDS011;7344;50.864;4.362;2023-04-24T03:45:49;20.13;;;11.50;;
14516;SDS011;7344;50.864;4.362;2023-04-24T03:48:15;14.37;;;10.07;;
14516;SDS011;7344;50.864;4.362;2023-04-24T03:50:41;11.47;;;10.13;;
14516;SDS011;7344;50.864;4.362;2023-04-24T03:53:07;13.17;;;9.83;;
14516;SDS011;7344;50.864;4.362;2023-04-24T03:55:33;12.07;;;10.03;;
14516;SDS011;7344;50.864;4.362;2023-04-24T03:57:58;12.87;;;9.77;;
14516;SDS011;7344;50.864;4.362;2023-04-24T04:00:24;11.23;;;9.40;;
14516;SDS011;7344;50.864;4.362;2023-04-24T04:02:51;10.47;;;9.33;;
14516;SDS011;7344;50.864;4.362;2023-04-24T04:05:16;13.13;;;8.70;;
14516;SDS011;7344;50.864;4.362;2023-04-24T04:07:42;10.43;;;8.07;;
14516;SDS011;7344;50.864;4.362;2023-04-24T04:10:07;9.10;;;7.77;;
14516;SDS011;7344;50.864;4.362;2023-04-24T04:12:33;8.80;;;7.90;;
14516;SDS011;7344;50.864;4.362;2023-04-24T04:14:59;10.23;;;8.20;;
14516;SDS011;7344;50.864;4.362;2023-04-24T04:17:25;9.53;;;8.03;;
14516;SDS011;7344;50.864;4.362;2023-04-24T04:19:50;9.27;;;8.27;;
14516;SDS011;7344;50.864;4.362;2023-04-24T04:22:16;8.90;;;7.93;;
14516;SDS011;7344;50.864;4.362;2023-04-24T04:24:42;8.80;;;7.90;;
14516;SDS011;7344;50.864;4.362;2023-04-24T04:27:08;8.97;;;7.27;;
14516;SDS011;7344;50.864;4.362;2023-04-24T04:29:33;8.43;;;7.53;;
14516;SDS011;7344;50.864;4.362;2023-04-24T04:31:59;10.57;;;7.57;;
14516;SDS011;7344;50.864;4.362;2023-04-24T04:34:26;8.50;;;7.60;;
14516;SDS011;7344;50.864;4.362;2023-04-24T04:36:52;8.27;;;7.43;;
14516;SDS011;7344;50.864;4.362;2023-04-24T04:39:17;7.93;;;6.83;;
14516;SDS011;7344;50.864;4.362;2023-04-24T04:41:43;8.93;;;7.40;;
14516;SDS011;7344;50.864;4.362;2023-04-24T04:44:11;9.80;;;7.73;;
14516;SDS011;7344;50.864;4.362;2023-04-24T04:46:37;10.30;;;7.67;;
14516;SDS011;7344;50.864;4.362;2023-04-24T04:49:03;9.43;;;7.53;;
14516;SDS011;7344;50.864;4.362;2023-04-24T04:51:29;9.20;;;8.30;;
14516;SDS011;7344;50.864;4.362;2023-04-24T04:53:56;9.50;;;8.57;;
14516;SDS011;7344;50.864;4.362;2023-04-24T04:56:21;14.57;;;9.40;;
14516;SDS011;7344;50.864;4.362;2023-04-24T04:58:47;13.80;;;10.10;;
14516;SDS011;7344;50.864;4.362;2023-04-24T05:01:12;12.20;;;10.20;;
14516;SDS011;7344;50.864;4.362;2023-04-24T05:03:38;14.77;;;11.07;;
14516;SDS011;7344;50.864;4.362;2023-04-24T05:06:04;19.50;;;11.60;;
14516;SDS011;7344;50.864;4.362;2023-04-24T05:08:30;17.57;;;12.13;;
14516;SDS011;7344;50.864;4.362;2023-04-24T05:10:56;17.77;;;11.73;;
14516;SDS011;7344;50.864;4.362;2023-04-24T05:13:22;15.23;;;11.50;;
14516;SDS011;7344;50.864;4.362;2023-04-24T05:15:47;19.13;;;12.73;;
14516;SDS011;7344;50.864;4.362;2023-04-24T05:18:13;19.50;;;13.10;;
14516;SDS011;7344;50.864;4.362;2023-04-24T05:20:38;19.03;;;12.80;;
14516;SDS011;7344;50.864;4.362;2023-04-24T05:23:04;17.33;;;13.00;;
14516;SDS011;7344;50.864;4.362;2023-04-24T05:25:30;21.90;;;12.97;;
14516;SDS011;7344;50.864;4.362;2023-04-24T05:28:00;21.03;;;13.47;;
14516;SDS011;7344;50.864;4.362;2023-04-24T05:30:26;20.90;;;13.53;;
14516;SDS011;7344;50.864;4.362;2023-04-24T05:32:51;21.30;;;12.87;;
14516;SDS011;7344;50.864;4.362;2023-04-24T05:35:17;14.77;;;12.27;;
14516;SDS011;7344;50.864;4.362;2023-04-24T05:37:43;22.43;;;12.83;;
14516;SDS011;7344;50.864;4.362;2023-04-24T05:40:09;18.13;;;12.70;;
14516;SDS011;7344;50.864;4.362;2023-04-24T05:42:36;15.60;;;12.00;;
14516;SDS011;7344;50.864;4.362;2023-04-24T05:45:01;17.67;;;12.63;;
14516;SDS011;7344;50.864;4.362;2023-04-24T05:47:28;18.37;;;12.27;;
14516;SDS011;7344;50.864;4.362;2023-04-24T05:49:53;18.23;;;12.30;;
14516;SDS011;7344;50.864;4.362;2023-04-24T05:52:19;22.70;;;13.37;;
14516;SDS011;7344;50.864;4.362;2023-04-24T05:54:45;20.97;;;13.33;;
14516;SDS011;7344;50.864;4.362;2023-04-24T05:57:10;18.53;;;13.77;;
14516;SDS011;7344;50.864;4.362;2023-04-24T05:59:36;21.73;;;13.20;;
14516;SDS011;7344;50.864;4.362;2023-04-24T06:02:06;18.03;;;13.77;;
14516;SDS011;7344;50.864;4.362;2023-04-24T06:04:32;19.03;;;13.53;;
14516;SDS011;7344;50.864;4.362;2023-04-24T06:06:58;22.80;;;13.37;;
14516;SDS011;7344;50.864;4.362;2023-04-24T06:09:25;17.37;;;13.33;;
14516;SDS011;7344;50.864;4.362;2023-04-24T06:11:51;22.43;;;13.30;;
14516;SDS011;7344;50.864;4.362;2023-04-24T06:14:18;22.43;;;14.20;;
14516;SDS011;7344;50.864;4.362;2023-04-24T06:16:44;21.90;;;13.53;;
14516;SDS011;7344;50.864;4.362;2023-04-24T06:19:10;23.80;;;13.93;;
14516;SDS011;7344;50.864;4.362;2023-04-24T06:21:36;23.83;;;14.10;;
14516;SDS011;7344;50.864;4.362;2023-04-24T06:24:01;22.33;;;14.83;;
14516;SDS011;7344;50.864;4.362;2023-04-24T06:26:28;24.27;;;13.83;;
14516;SDS011;7344;50.864;4.362;2023-04-24T06:28:54;23.80;;;14.77;;
14516;SDS011;7344;50.864;4.362;2023-04-24T06:31:20;22.17;;;15.00;;
14516;SDS011;7344;50.864;4.362;2023-04-24T06:33:45;25.37;;;14.77;;
14516;SDS011;7344;50.864;4.362;2023-04-24T06:36:11;19.50;;;14.17;;
14516;SDS011;7344;50.864;4.362;2023-04-24T06:38:37;29.57;;;15.57;;
14516;SDS011;7344;50.864;4.362;2023-04-24T06:41:03;25.20;;;15.50;;
14516;SDS011;7344;50.864;4.362;2023-04-24T06:43:30;25.43;;;15.50;;
14516;SDS011;7344;50.864;4.362;2023-04-24T06:45:57;27.00;;;16.30;;
14516;SDS011;7344;50.864;4.362;2023-04-24T06:48:23;30.37;;;16.17;;
14516;SDS011;7344;50.864;4.362;2023-04-24T06:50:50;25.90;;;15.77;;
14516;SDS011;7344;50.864;4.362;2023-04-24T06:53:16;33.83;;;17.00;;
14516;SDS011;7344;50.864;4.362;2023-04-24T06:55:41;29.07;;;15.13;;
14516;SDS011;7344;50.864;4.362;2023-04-24T06:58:08;29.73;;;16.43;;
14516;SDS011;7344;50.864;4.362;2023-04-24T07:00:34;24.47;;;14.63;;
14516;SDS011;7344;50.864;4.362;2023-04-24T07:03:00;28.07;;;16.47;;
14516;SDS011;7344;50.864;4.362;2023-04-24T07:05:25;27.10;;;16.27;;
14516;SDS011;7344;50.864;4.362;2023-04-24T07:07:51;22.93;;;17.00;;
14516;SDS011;7344;50.864;4.362;2023-04-24T07:10:17;29.43;;;17.00;;
14516;SDS011;7344;50.864;4.362;2023-04-24T07:12:43;26.50;;;16.97;;
14516;SDS011;7344;50.864;4.362;2023-04-24T07:15:08;29.60;;;16.17;;
14516;SDS011;7344;50.864;4.362;2023-04-24T07:17:35;26.80;;;15.93;;
14516;SDS011;7344;50.864;4.362;2023-04-24T07:20:03;23.23;;;15.43;;
14516;SDS011;7344;50.864;4.362;2023-04-24T07:22:29;21.90;;;14.23;;
14516;SDS011;7344;50.864;4.362;2023-04-24T07:24:55;21.67;;;12.80;;
14516;SDS011;7344;50.864;4.362;2023-04-24T07:27:20;25.17;;;13.63;;
14516;SDS011;7344;50.864;4.362;2023-04-24T07:29:46;20.47;;;12.77;;
14516;SDS011;7344;50.864;4.362;2023-04-24T07:32:12;19.80;;;12.17;;
14516;SDS011;7344;50.864;4.362;2023-04-24T07:34:37;23.90;;;11.67;;
14516;SDS011;7344;50.864;4.362;2023-04-24T07:37:03;17.60;;;11.07;;
14516;SDS011;7344;50.864;4.362;2023-04-24T07:39:29;11.80;;;10.40;;
14516;SDS011;7344;50.864;4.362;2023-04-24T07:41:54;14.90;;;9.93;;
14516;SDS011;7344;50.864;4.362;2023-04-24T07:44:20;13.70;;;9.20;;
14516;SDS011;7344;50.864;4.362;2023-04-24T07:46:45;12.13;;;8.47;;
14516;SDS011;7344;50.864;4.362;2023-04-24T07:49:12;11.53;;;8.20;;
14516;SDS011;7344;50.864;4.362;2023-04-24T07:51:38;14.50;;;9.40;;
14516;SDS011;7344;50.864;4.362;2023-04-24T07:54:04;12.90;;;9.40;;
14516;SDS011;7344;50.864;4.362;2023-04-24T07:56:33;16.33;;;10.47;;
14516;SDS011;7344;50.864;4.362;2023-04-24T07:58:58;19.50;;;11.40;;
14516;SDS011;7344;50.864;4.362;2023-04-24T08:01:26;20.60;;;11.67;;
14516;SDS011;7344;50.864;4.362;2023-04-24T08:03:51;17.00;;;10.57;;
14516;SDS011;7344;50.864;4.362;2023-04-24T08:06:17;21.03;;;11.13;;
14516;SDS011;7344;50.864;4.362;2023-04-24T08:08:43;16.33;;;9.80;;
14516;SDS011;7344;50.864;4.362;2023-04-24T08:11:08;17.77;;;10.27;;
14516;SDS011;7344;50.864;4.362;2023-04-24T08:13:34;23.93;;;11.07;;
14516;SDS011;7344;50.864;4.362;2023-04-24T08:16:00;13.47;;;9.43;;
14516;SDS011;7344;50.864;4.362;2023-04-24T08:18:25;14.93;;;9.63;;
14516;SDS011;7344;50.864;4.362;2023-04-24T08:20:51;14.73;;;8.97;;
14516;SDS011;7344;50.864;4.362;2023-04-24T08:23:17;15.73;;;9.23;;
14516;SDS011;7344;50.864;4.362;2023-04-24T08:25:42;17.33;;;8.07;;
14516;SDS011;7344;50.864;4.362;2023-04-24T08:28:08;12.00;;;7.80;;
14516;SDS011;7344;50.864;4.362;2023-04-24T08:30:35;13.00;;;7.93;;
14516;SDS011;7344;50.864;4.362;2023-04-24T08:33:01;23.20;;;8.30;;
14516;SDS011;7344;50.864;4.362;2023-04-24T08:35:27;15.03;;;7.27;;
14516;SDS011;7344;50.864;4.362;2023-04-24T08:37:53;11.87;;;7.20;;
14516;SDS011;7344;50.864;4.362;2023-04-24T08:40:18;14.63;;;7.07;;
14516;SDS011;7344;50.864;4.362;2023-04-24T08:42:53;17.23;;;7.00;;
14516;SDS011;7344;50.864;4.362;2023-04-24T08:45:21;13.03;;;7.10;;
14516;SDS011;7344;50.864;4.362;2023-04-24T08:47:47;11.63;;;6.40;;
14516;SDS011;7344;50.864;4.362;2023-04-24T08:50:14;10.60;;;5.83;;
14516;SDS011;7344;50.864;4.362;2023-04-24T08:52:41;9.23;;;5.63;;
14516;SDS011;7344;50.864;4.362;2023-04-24T08:55:07;10.40;;;6.10;;
14516;SDS011;7344;50.864;4.362;2023-04-24T08:57:33;12.93;;;5.47;;
14516;SDS011;7344;50.864;4.362;2023-04-24T09:00:00;10.10;;;5.38;;
14516;SDS011;7344;50.864;4.362;2023-04-24T09:02:26;8.15;;;5.20;;
14516;SDS011;7344;50.864;4.362;2023-04-24T09:04:53;9.87;;;5.23;;
14516;SDS011;7344;50.864;4.362;2023-04-24T09:07:22;6.25;;;4.72;;
14516;SDS011;7344;50.864;4.362;2023-04-24T09:09:50;14.45;;;5.13;;
14516;SDS011;7344;50.864;4.362;2023-04-24T09:12:16;5.55;;;4.43;;
14516;SDS011;7344;50.864;4.362;2023-04-24T09:14:42;4.85;;;4.03;;
14516;SDS011;7344;50.864;4.362;2023-04-24T09:17:10;6.65;;;4.53;;
14516;SDS011;7344;50.864;4.362;2023-04-24T09:19:36;10.85;;;4.70;;
14516;SDS011;7344;50.864;4.362;2023-04-24T09:22:05;6.22;;;4.53;;
14516;SDS011;7344;50.864;4.362;2023-04-24T09:24:32;9.23;;;4.20;;
14516;SDS011;7344;50.864;4.362;2023-04-24T09:26:58;5.63;;;4.20;;
14516;SDS011;7344;50.864;4.362;2023-04-24T09:29:24;7.00;;;4.30;;
14516;SDS011;7344;50.864;4.362;2023-04-24T09:31:50;12.02;;;4.90;;
14516;SDS011;7344;50.864;4.362;2023-04-24T09:34:20;4.60;;;3.77;;
14516;SDS011;7344;50.864;4.362;2023-04-24T09:36:48;8.40;;;4.70;;
14516;SDS011;7344;50.864;4.362;2023-04-24T09:39:14;8.90;;;4.67;;
14516;SDS011;7344;50.864;4.362;2023-04-24T09:42:02;7.53;;;4.93;;
14516;SDS011;7344;50.864;4.362;2023-04-24T09:44:27;8.20;;;4.17;;
14516;SDS011;7344;50.864;4.362;2023-04-24T09:46:54;5.67;;;4.23;;
14516;SDS011;7344;50.864;4.362;2023-04-24T09:49:25;7.90;;;4.13;;
14516;SDS011;7344;50.864;4.362;2023-04-24T09:52:07;7.07;;;4.03;;
14516;SDS011;7344;50.864;4.362;2023-04-24T09:54:34;7.73;;;3.90;;
14516;SDS011;7344;50.864;4.362;2023-04-24T09:57:01;6.77;;;4.10;;
14516;SDS011;7344;50.864;4.362;2023-04-24T09:59:27;6.10;;;4.17;;
14516;SDS011;7344;50.864;4.362;2023-04-24T10:01:53;7.23;;;4.00;;
14516;SDS011;7344;50.864;4.362;2023-04-24T10:04:19;6.67;;;3.90;;
14516;SDS011;7344;50.864;4.362;2023-04-24T10:06:49;5.53;;;4.10;;
14516;SDS011;7344;50.864;4.362;2023-04-24T10:09:20;7.10;;;4.20;;
14516;SDS011;7344;50.864;4.362;2023-04-24T10:11:49;7.43;;;4.20;;
14516;SDS011;7344;50.864;4.362;2023-04-24T10:14:23;6.83;;;4.00;;
14516;SDS011;7344;50.864;4.362;2023-04-24T10:16:51;5.97;;;4.00;;
14516;SDS011;7344;50.864;4.362;2023-04-24T10:19:19;7.87;;;4.50;;
14516;SDS011;7344;50.864;4.362;2023-04-24T10:21:45;5.93;;;3.80;;
14516;SDS011;7344;50.864;4.362;2023-04-24T10:24:17;6.27;;;4.30;;
14516;SDS011;7344;50.864;4.362;2023-04-24T10:26:46;6.97;;;4.23;;
14516;SDS011;7344;50.864;4.362;2023-04-24T10:29:14;8.03;;;4.57;;
14516;SDS011;7344;50.864;4.362;2023-04-24T10:31:42;6.23;;;4.67;;
14516;SDS011;7344;50.864;4.362;2023-04-24T10:34:10;8.03;;;4.67;;
14516;SDS011;7344;50.864;4.362;2023-04-24T10:36:37;5.67;;;4.20;;
14516;SDS011;7344;50.864;4.362;2023-04-24T10:39:07;8.67;;;4.27;;
14516;SDS011;7344;50.864;4.362;2023-04-24T10:41:37;6.13;;;4.60;;
14516;SDS011;7344;50.864;4.362;2023-04-24T10:46:43;8.77;;;5.13;;
14516;SDS011;7344;50.864;4.362;2023-04-24T10:49:17;7.50;;;4.50;;
14516;SDS011;7344;50.864;4.362;2023-04-24T10:51:53;6.37;;;4.63;;
14516;SDS011;7344;50.864;4.362;2023-04-24T10:54:28;7.53;;;4.90;;
14516;SDS011;7344;50.864;4.362;2023-04-24T10:59:43;6.93;;;4.80;;
14516;SDS011;7344;50.864;4.362;2023-04-24T11:02:09;6.53;;;4.70;;
14516;SDS011;7344;50.864;4.362;2023-04-24T11:04:35;5.83;;;4.77;;
14516;SDS011;7344;50.864;4.362;2023-04-24T11:07:04;8.47;;;5.10;;
14516;SDS011;7344;50.864;4.362;2023-04-24T11:09:30;7.53;;;5.23;;
14516;SDS011;7344;50.864;4.362;2023-04-24T11:12:04;8.87;;;5.00;;
14516;SDS011;7344;50.864;4.362;2023-04-24T11:17:32;7.37;;;5.30;;
14516;SDS011;7344;50.864;4.362;2023-04-24T11:20:08;8.20;;;4.90;;
14516;SDS011;7344;50.864;4.362;2023-04-24T11:22:41;7.37;;;4.97;;
14516;SDS011;7344;50.864;4.362;2023-04-24T11:25:07;5.50;;;5.00;;
14516;SDS011;7344;50.864;4.362;2023-04-24T11:27:40;6.50;;;4.33;;
14516;SDS011;7344;50.864;4.362;2023-04-24T11:30:07;5.70;;;4.80;;
14516;SDS011;7344;50.864;4.362;2023-04-24T11:37:34;8.43;;;5.17;;
14516;SDS011;7344;50.864;4.362;2023-04-24T11:40:08;7.73;;;4.83;;
14516;SDS011;7344;50.864;4.362;2023-04-24T11:42:39;5.40;;;4.90;;
14516;SDS011;7344;50.864;4.362;2023-04-24T11:45:07;5.07;;;4.57;;
14516;SDS011;7344;50.864;4.362;2023-04-24T11:47:33;8.13;;;5.10;;
14516;SDS011;7344;50.864;4.362;2023-04-24T11:49:59;5.55;;;5.05;;
14516;SDS011;7344;50.864;4.362;2023-04-24T11:52:26;7.25;;;5.53;;
14516;SDS011;7344;50.864;4.362;2023-04-24T11:54:52;5.55;;;4.88;;
14516;SDS011;7344;50.864;4.362;2023-04-24T11:57:21;5.67;;;5.17;;
14516;SDS011;7344;50.864;4.362;2023-04-24T11:59:49;5.78;;;5.03;;
14516;SDS011;7344;50.864;4.362;2023-04-24T12:02:24;6.47;;;4.97;;
14516;SDS011;7344;50.864;4.362;2023-04-24T12:04:51;6.97;;;5.20;;
14516;SDS011;7344;50.864;4.362;2023-04-24T12:07:21;6.22;;;5.63;;
14516;SDS011;7344;50.864;4.362;2023-04-24T12:09:49;6.40;;;5.30;;
14516;SDS011;7344;50.864;4.362;2023-04-24T12:12:24;6.90;;;5.90;;
14516;SDS011;7344;50.864;4.362;2023-04-24T12:14:54;5.03;;;4.63;;
14516;SDS011;7344;50.864;4.362;2023-04-24T12:17:28;5.13;;;4.63;;
14516;SDS011;7344;50.864;4.362;2023-04-24T12:20:14;12.90;;;9.40;;
14516;SDS011;7344;50.864;4.362;2023-04-24T12:22:43;33.37;;;20.97;;
14516;SDS011;7344;50.864;4.362;2023-04-24T12:25:16;9.93;;;6.63;;
14516;SDS011;7344;50.864;4.362;2023-04-24T12:27:44;5.23;;;4.67;;
14516;SDS011;7344;50.864;4.362;2023-04-24T12:30:11;7.03;;;5.33;;
14516;SDS011;7344;50.864;4.362;2023-04-24T12:32:43;11.57;;;8.17;;
14516;SDS011;7344;50.864;4.362;2023-04-24T12:35:10;4.30;;;3.97;;
14516;SDS011;7344;50.864;4.362;2023-04-24T12:37:36;4.60;;;4.20;;
14516;SDS011;7344;50.864;4.362;2023-04-24T12:42:33;6.57;;;4.60;;
14516;SDS011;7344;50.864;4.362;2023-04-24T12:45:00;6.83;;;4.27;;
14516;SDS011;7344;50.864;4.362;2023-04-24T12:47:27;4.77;;;4.13;;
14516;SDS011;7344;50.864;4.362;2023-04-24T12:49:53;5.00;;;4.10;;
14516;SDS011;7344;50.864;4.362;2023-04-24T12:52:20;5.23;;;4.73;;
14516;SDS011;7344;50.864;4.362;2023-04-24T12:54:52;7.03;;;5.30;;
14516;SDS011;7344;50.864;4.362;2023-04-24T12:57:20;6.60;;;4.20;;
14516;SDS011;7344;50.864;4.362;2023-04-24T12:59:46;10.03;;;5.50;;
14516;SDS011;7344;50.864;4.362;2023-04-24T13:02:11;8.20;;;4.17;;
14516;SDS011;7344;50.864;4.362;2023-04-24T13:04:37;6.77;;;4.13;;
14516;SDS011;7344;50.864;4.362;2023-04-24T13:07:03;7.43;;;4.33;;
14516;SDS011;7344;50.864;4.362;2023-04-24T13:09:30;6.07;;;3.87;;
14516;SDS011;7344;50.864;4.362;2023-04-24T13:11:55;5.82;;;4.15;;
14516;SDS011;7344;50.864;4.362;2023-04-24T13:14:23;6.27;;;4.20;;
14516;SDS011;7344;50.864;4.362;2023-04-24T13:16:49;6.57;;;4.53;;
14516;SDS011;7344;50.864;4.362;2023-04-24T13:19:14;7.00;;;4.20;;
14516;SDS011;7344;50.864;4.362;2023-04-24T13:21:40;6.63;;;4.10;;
14516;SDS011;7344;50.864;4.362;2023-04-24T13:24:06;4.10;;;3.33;;
14516;SDS011;7344;50.864;4.362;2023-04-24T13:26:32;5.30;;;3.33;;
14516;SDS011;7344;50.864;4.362;2023-04-24T13:28:58;4.30;;;3.90;;
14516;SDS011;7344;50.864;4.362;2023-04-24T13:31:24;3.20;;;2.80;;
14516;SDS011;7344;50.864;4.362;2023-04-24T13:33:50;4.93;;;3.43;;
14516;SDS011;7344;50.864;4.362;2023-04-24T13:36:16;6.23;;;3.37;;
14516;SDS011;7344;50.864;4.362;2023-04-24T13:38:42;3.13;;;2.83;;
14516;SDS011;7344;50.864;4.362;2023-04-24T13:41:09;4.20;;;2.80;;
14516;SDS011;7344;50.864;4.362;2023-04-24T13:43:35;5.23;;;3.40;;
14516;SDS011;7344;50.864;4.362;2023-04-24T13:46:01;6.10;;;3.33;;
14516;SDS011;7344;50.864;4.362;2023-04-24T13:48:28;3.40;;;2.73;;
14516;SDS011;7344;50.864;4.362;2023-04-24T13:50:54;4.10;;;2.90;;
14516;SDS011;7344;50.864;4.362;2023-04-24T13:53:20;4.60;;;2.57;;
14516;SDS011;7344;50.864;4.362;2023-04-24T13:55:45;4.47;;;2.90;;
14516;SDS011;7344;50.864;4.362;2023-04-24T13:58:11;3.17;;;2.87;;
14516;SDS011;7344;50.864;4.362;2023-04-24T14:00:37;3.50;;;2.70;;
14516;SDS011;7344;50.864;4.362;2023-04-24T14:03:02;4.73;;;3.07;;
14516;SDS011;7344;50.864;4.362;2023-04-24T14:05:28;4.43;;;2.50;;
14516;SDS011;7344;50.864;4.362;2023-04-24T14:07:54;3.55;;;2.17;;
14516;SDS011;7344;50.864;4.362;2023-04-24T14:10:20;2.53;;;2.22;;
14516;SDS011;7344;50.864;4.362;2023-04-24T14:12:45;2.63;;;2.30;;
14516;SDS011;7344;50.864;4.362;2023-04-24T14:15:11;4.03;;;2.30;;
14516;SDS011;7344;50.864;4.362;2023-04-24T14:17:38;3.60;;;2.13;;
14516;SDS011;7344;50.864;4.362;2023-04-24T14:20:04;2.93;;;2.03;;
14516;SDS011;7344;50.864;4.362;2023-04-24T14:22:30;5.63;;;2.42;;
14516;SDS011;7344;50.864;4.362;2023-04-24T14:24:56;3.60;;;2.40;;
14516;SDS011;7344;50.864;4.362;2023-04-24T14:27:22;5.60;;;2.80;;
14516;SDS011;7344;50.864;4.362;2023-04-24T14:29:49;3.23;;;2.63;;
14516;SDS011;7344;50.864;4.362;2023-04-24T14:32:14;5.93;;;2.70;;
14516;SDS011;7344;50.864;4.362;2023-04-24T14:34:40;4.03;;;2.50;;
14516;SDS011;7344;50.864;4.362;2023-04-24T14:37:06;5.50;;;2.67;;
14516;SDS011;7344;50.864;4.362;2023-04-24T14:39:32;6.03;;;3.20;;
14516;SDS011;7344;50.864;4.362;2023-04-24T14:41:58;6.30;;;3.10;;
14516;SDS011;7344;50.864;4.362;2023-04-24T14:44:23;6.10;;;3.87;;
14516;SDS011;7344;50.864;4.362;2023-04-24T14:46:49;3.10;;;2.47;;
14516;SDS011;7344;50.864;4.362;2023-04-24T14:49:15;7.93;;;2.80;;
14516;SDS011;7344;50.864;4.362;2023-04-24T14:51:40;3.47;;;2.50;;
14516;SDS011;7344;50.864;4.362;2023-04-24T14:54:07;4.47;;;2.73;;
14516;SDS011;7344;50.864;4.362;2023-04-24T14:56:33;3.83;;;2.60;;
14516;SDS011;7344;50.864;4.362;2023-04-24T14:58:59;4.10;;;2.30;;
14516;SDS011;7344;50.864;4.362;2023-04-24T15:01:24;4.00;;;2.50;;